createdAt,value
2022-10-31T06:05:26.932Z,101342.38
2022-10-31T06:08:14.281Z,101334.91
2022-10-31T06:11:01.750Z,101333.16
2022-10-31T06:13:49.117Z,101333.16
2022-10-31T06:16:36.465Z,101336.56
2022-10-31T06:19:23.790Z,101336.34
2022-10-31T06:22:12.576Z,101339.66
2022-10-31T06:25:00.078Z,101347.94
2022-10-31T06:27:47.398Z,101348.06
2022-10-31T06:30:35.097Z,101350.03
2022-10-31T06:33:22.394Z,101358.34
2022-10-31T06:36:10.793Z,101367.59
2022-10-31T06:38:58.156Z,101367.00
2022-10-31T06:41:48.552Z,101364.28
2022-10-31T06:44:35.889Z,101369.56
2022-10-31T06:47:23.191Z,101379.81
2022-10-31T06:50:10.496Z,101377.22
2022-10-31T06:52:59.618Z,101373.28
2022-10-31T06:55:47.084Z,101385.81
2022-10-31T06:58:34.820Z,101391.63
2022-10-31T07:01:22.486Z,101395.03
2022-10-31T07:04:12.983Z,101379.78
2022-10-31T07:07:00.301Z,101378.88
2022-10-31T07:09:47.981Z,101393.00
2022-10-31T07:12:35.294Z,101388.34
2022-10-31T07:15:23.535Z,101401.41
2022-10-31T07:18:12.564Z,101404.59
2022-10-31T07:20:59.906Z,101406.06
2022-10-31T07:23:49.695Z,101416.91
2022-10-31T07:26:36.958Z,101414.22
2022-10-31T07:29:24.265Z,101420.81
2022-10-31T07:32:11.865Z,101415.81
2022-10-31T07:34:59.161Z,101409.19
2022-10-31T07:37:46.625Z,101415.94
2022-10-31T07:40:34.040Z,101420.78
2022-10-31T07:43:21.606Z,101426.06
2022-10-31T07:46:08.902Z,101445.66
2022-10-31T07:48:56.304Z,101445.19
2022-10-31T07:51:46.471Z,101437.63
2022-10-31T07:54:34.113Z,101454.53
2022-10-31T07:57:24.180Z,101458.59
2022-10-31T08:00:12.801Z,101471.06
2022-10-31T08:03:00.471Z,101481.28
2022-10-31T08:05:48.250Z,101487.03
2022-10-31T08:08:38.265Z,101491.31
2022-10-31T08:11:25.882Z,101497.25
2022-10-31T08:14:13.112Z,101499.00
2022-10-31T08:17:00.424Z,101501.03
2022-10-31T08:19:47.666Z,101510.75
2022-10-31T08:22:39.877Z,101512.63
2022-10-31T08:25:37.264Z,101518.06
2022-10-31T08:28:26.332Z,101527.19
2022-10-31T08:31:13.620Z,101535.34
2022-10-31T08:34:00.997Z,101545.19
2022-10-31T08:36:48.346Z,101545.72
2022-10-31T08:39:35.690Z,101555.19
2022-10-31T08:42:23.030Z,101559.88
2022-10-31T08:45:10.871Z,101570.56
2022-10-31T08:48:04.292Z,101570.31
2022-10-31T08:50:51.883Z,101578.28
2022-10-31T08:53:39.187Z,101591.22
2022-10-31T08:56:26.617Z,101597.66
2022-10-31T08:59:13.968Z,101612.50
2022-10-31T09:02:01.419Z,101606.34
2022-10-31T09:04:50.275Z,101606.34
2022-10-31T09:07:37.626Z,101622.63
2022-10-31T09:10:25.949Z,101640.53
2022-10-31T09:13:16.448Z,101624.94
2022-10-31T09:16:03.991Z,101635.81
2022-10-31T09:18:54.362Z,101644.44
2022-10-31T09:21:41.665Z,101644.72
2022-10-31T09:24:28.938Z,101654.97
2022-10-31T09:27:16.271Z,101667.84
2022-10-31T09:30:04.730Z,101670.41
2022-10-31T09:33:11.213Z,101685.28
2022-10-31T09:35:59.668Z,101687.06
2022-10-31T09:38:46.993Z,101690.84
2022-10-31T09:42:24.798Z,101692.97
2022-10-31T09:45:29.921Z,101700.63
2022-10-31T09:48:30.610Z,101715.47
2022-10-31T09:51:34.109Z,101716.94
2022-10-31T09:54:41.706Z,101728.78
2022-10-31T09:57:37.429Z,101735.72
2022-10-31T10:00:24.892Z,101741.38
2022-10-31T10:03:23.848Z,101744.91
2022-10-31T10:06:22.668Z,101756.03
2022-10-31T10:09:11.178Z,101752.50
2022-10-31T10:12:29.476Z,101762.75
2022-10-31T10:15:45.170Z,101758.19
2022-10-31T10:18:48.042Z,101767.44
2022-10-31T11:32:29.864Z,101786.94
2022-10-31T11:35:19.569Z,101782.88
2022-10-31T11:38:06.926Z,101787.56
2022-10-31T11:41:12.691Z,101782.53
2022-10-31T11:44:04.700Z,101779.41
2022-10-31T11:47:06.693Z,101778.13
2022-10-31T11:49:54.250Z,101771.78
2022-10-31T11:52:41.603Z,101765.97
2022-10-31T11:55:38.427Z,101762.25
2022-10-31T11:58:27.413Z,101775.59
2022-10-31T12:01:27.051Z,101783.72
2022-10-31T12:04:15.329Z,101778.78
2022-10-31T12:07:03.140Z,101783.44
2022-10-31T12:09:50.880Z,101784.31
2022-10-31T12:13:03.069Z,101788.09
2022-10-31T12:16:02.648Z,101786.63
2022-10-31T12:19:01.749Z,101787.59
2022-10-31T12:21:57.317Z,101780.06
2022-10-31T12:25:09.558Z,101784.22
2022-10-31T12:27:56.854Z,101783.09
2022-10-31T12:31:14.585Z,101783.38
2022-10-31T12:34:48.821Z,101769.66
2022-10-31T12:37:56.935Z,101769.66
2022-10-31T12:41:25.735Z,101764.34
2022-10-31T12:44:37.713Z,101763.28
2022-10-31T12:47:46.571Z,101771.66
2022-10-31T12:51:04.301Z,101781.50
2022-10-31T12:54:08.840Z,101770.78
2022-10-31T12:57:08.497Z,101769.53
2022-10-31T13:00:04.619Z,101772.63
2022-10-31T13:03:06.420Z,101769.38
2022-10-31T13:06:03.726Z,101764.91
2022-10-31T13:08:55.433Z,101761.25
2022-10-31T13:11:59.723Z,101760.94
2022-10-31T13:14:53.235Z,101761.34
2022-10-31T13:17:53.117Z,101752.28
2022-10-31T13:20:45.003Z,101758.41
2022-10-31T13:23:50.485Z,101765.59
2022-10-31T13:26:44.164Z,101754.84
2022-10-31T13:29:37.111Z,101758.56
2022-10-31T13:32:29.788Z,101756.22
2022-10-31T13:36:08.611Z,101753.91
2022-10-31T13:39:04.377Z,101731.75
2022-10-31T13:42:17.542Z,101726.91
2022-10-31T13:45:16.716Z,101727.97
2022-10-31T13:48:16.101Z,101730.75
2022-10-31T13:51:10.085Z,101739.38
2022-10-31T13:54:16.180Z,101742.00
2022-10-31T13:57:08.545Z,101741.69
2022-10-31T14:00:02.369Z,101750.94
2022-10-31T14:02:55.479Z,101734.69
2022-10-31T14:05:43.609Z,101735.19
2022-10-31T14:08:35.500Z,101729.41
2022-10-31T14:11:25.083Z,101727.13
2022-10-31T14:14:13.336Z,101734.88
2022-10-31T14:17:01.254Z,101732.72
2022-10-31T14:20:21.203Z,101726.84
2022-10-31T14:23:36.590Z,101726.94
2022-10-31T14:26:30.153Z,101726.56
2022-10-31T14:29:18.073Z,101720.84
2022-10-31T14:32:15.577Z,101719.72
2022-10-31T14:35:04.271Z,101703.84
2022-10-31T14:38:08.868Z,101700.09
2022-10-31T14:41:33.024Z,101706.63
2022-10-31T14:44:20.676Z,101701.19
2022-10-31T14:47:40.138Z,101685.41
2022-10-31T14:50:43.188Z,101679.16
2022-10-31T14:53:34.831Z,101678.53
2022-10-31T14:56:32.449Z,101677.72
2022-10-31T14:59:25.704Z,101677.59
2022-10-31T15:02:24.289Z,101673.78
2022-10-31T15:05:14.051Z,101670.34
2022-10-31T15:08:01.627Z,101658.19
2022-10-31T15:10:49.114Z,101648.25
2022-10-31T15:13:43.767Z,101647.75
2022-10-31T15:16:42.057Z,101630.66
2022-10-31T15:19:31.679Z,101624.06
2022-10-31T15:22:24.712Z,101626.28
2022-10-31T15:25:22.773Z,101610.66
2022-10-31T15:28:25.628Z,101613.59
2022-10-31T15:31:19.304Z,101614.47
2022-10-31T15:34:17.819Z,101618.22
2022-10-31T15:37:06.224Z,101602.41
2022-10-31T15:39:54.366Z,101588.78
2022-10-31T15:42:42.587Z,101585.19
2022-10-31T15:45:31.514Z,101578.94
2022-10-31T15:48:25.516Z,101565.13
2022-10-31T15:51:13.607Z,101570.53
2022-10-31T15:54:01.395Z,101568.72
2022-10-31T15:56:49.576Z,101565.84
2022-10-31T15:59:37.037Z,101558.81
2022-10-31T16:02:27.244Z,101551.28
2022-10-31T16:05:20.511Z,101549.03
2022-10-31T16:08:25.451Z,101540.66
2022-10-31T16:11:15.634Z,101539.38
2022-10-31T16:14:05.978Z,101521.00
2022-10-31T16:16:57.452Z,101526.13
2022-10-31T16:19:56.160Z,101522.00
2022-10-31T16:22:52.068Z,101520.19
2022-10-31T16:25:39.936Z,101520.19
2022-10-31T16:28:31.967Z,101513.81
2022-10-31T16:31:31.222Z,101503.91
2022-10-31T16:34:26.617Z,101506.06
2022-10-31T16:37:18.375Z,101498.13
2022-10-31T16:40:06.121Z,101500.34
2022-10-31T16:42:53.794Z,101486.84
2022-10-31T16:45:49.217Z,101482.22
2022-10-31T16:48:36.838Z,101484.13
2022-10-31T16:51:24.732Z,101483.25
2022-10-31T16:54:12.274Z,101468.00
2022-10-31T16:57:00.764Z,101461.44
2022-10-31T16:59:52.717Z,101454.91
2022-10-31T17:02:39.939Z,101459.16
2022-10-31T17:05:30.901Z,101454.28
2022-10-31T17:08:18.295Z,101445.53
2022-10-31T17:11:06.863Z,101450.31
2022-10-31T17:13:55.876Z,101443.09
2022-10-31T17:16:43.535Z,101439.63
2022-10-31T17:19:33.682Z,101444.97
2022-10-31T17:22:21.202Z,101433.31
2022-10-31T17:25:13.781Z,101432.91
2022-10-31T17:28:01.332Z,101418.16
2022-10-31T17:30:49.021Z,101421.50
2022-10-31T17:33:36.585Z,101412.44
2022-10-31T17:36:24.187Z,101396.78
2022-10-31T17:39:11.858Z,101386.75
2022-10-31T17:41:59.271Z,101383.78
2022-10-31T17:44:47.134Z,101387.41
2022-10-31T17:47:35.541Z,101381.25
2022-10-31T17:50:26.693Z,101362.72
2022-10-31T17:53:14.702Z,101361.09
2022-10-31T17:56:07.389Z,101363.19
2022-10-31T17:58:57.281Z,101361.47
2022-10-31T18:01:45.903Z,101372.13
2022-10-31T18:04:33.298Z,101361.19
2022-10-31T18:07:21.286Z,101362.47
2022-10-31T18:10:09.432Z,101359.50
2022-10-31T18:12:56.730Z,101363.81
2022-10-31T18:15:44.840Z,101354.66
2022-10-31T18:18:32.136Z,101347.13
2022-10-31T18:21:20.671Z,101354.28
2022-10-31T18:24:09.322Z,101345.41
2022-10-31T18:26:56.793Z,101346.81
2022-10-31T18:29:45.517Z,101346.09
2022-10-31T18:32:32.869Z,101344.97
2022-10-31T18:35:20.224Z,101336.47
2022-10-31T18:38:08.197Z,101312.28
2022-10-31T18:40:55.842Z,101322.34
2022-10-31T18:43:45.827Z,101312.22
2022-10-31T18:46:35.467Z,101299.78
2022-10-31T18:49:24.427Z,101313.44
2022-10-31T18:52:11.832Z,101321.09
2022-10-31T18:55:00.517Z,101325.53
2022-10-31T18:57:47.952Z,101321.22
2022-10-31T19:00:35.365Z,101299.41
2022-10-31T19:03:27.012Z,101283.31
2022-10-31T19:06:16.911Z,101281.91
2022-10-31T19:09:09.423Z,101313.63
2022-10-31T19:11:57.219Z,101348.88
2022-10-31T19:14:44.583Z,101327.88
2022-10-31T19:17:33.052Z,101344.13
2022-10-31T19:20:20.512Z,101346.84
2022-10-31T19:23:08.433Z,101352.00
2022-10-31T19:25:58.980Z,101348.22
2022-10-31T19:28:47.549Z,101351.38
2022-10-31T19:31:35.058Z,101333.91
2022-10-31T19:34:22.453Z,101344.84
2022-10-31T19:37:10.338Z,101324.66
2022-10-31T19:39:57.738Z,101320.66
2022-10-31T19:42:45.184Z,101319.84
2022-10-31T19:45:32.480Z,101306.41
2022-10-31T19:48:19.831Z,101293.03
2022-10-31T19:51:09.970Z,101289.53
2022-10-31T19:53:57.382Z,101279.47
2022-10-31T19:56:44.735Z,101270.72
2022-10-31T19:59:38.154Z,101258.13
2022-10-31T20:02:27.470Z,101259.88
2022-10-31T20:05:15.417Z,101250.66
2022-10-31T20:08:02.961Z,101260.34
2022-10-31T20:11:02.452Z,101256.28
2022-10-31T20:13:49.888Z,101251.19
2022-10-31T20:16:38.691Z,101246.75
2022-10-31T20:19:26.307Z,101250.94
2022-10-31T20:22:13.998Z,101227.19
2022-10-31T20:25:02.467Z,101200.09
2022-10-31T20:27:50.947Z,101191.91
2022-10-31T20:30:38.279Z,101175.66
2022-10-31T20:33:26.012Z,101180.41
2022-10-31T20:36:14.893Z,101181.53
2022-10-31T20:39:03.222Z,101174.34
2022-10-31T20:41:51.079Z,101171.50
2022-10-31T20:44:38.472Z,101175.16
2022-10-31T20:47:25.959Z,101197.16
2022-10-31T20:50:13.361Z,101206.56
2022-10-31T20:53:01.599Z,101207.84
2022-10-31T20:55:49.796Z,101209.19
2022-10-31T20:58:38.926Z,101219.00
2022-10-31T21:01:29.523Z,101215.34
2022-10-31T21:04:17.024Z,101202.75
2022-10-31T21:07:04.565Z,101198.91
2022-10-31T21:09:52.746Z,101197.94
2022-10-31T21:12:41.347Z,101185.13
2022-10-31T21:15:29.426Z,101185.75
2022-10-31T21:18:16.926Z,101188.47
2022-10-31T21:21:32.861Z,101171.97
2022-10-31T21:24:23.524Z,101172.94
2022-10-31T21:27:12.454Z,101166.03
2022-10-31T21:30:00.863Z,101162.56
2022-10-31T21:32:48.409Z,101163.69
2022-10-31T21:35:36.523Z,101162.09
2022-10-31T21:38:23.788Z,101150.81
2022-10-31T21:41:13.930Z,101151.63
2022-10-31T21:44:01.429Z,101138.56
2022-10-31T21:46:51.712Z,101140.28
2022-10-31T21:49:39.023Z,101146.69
2022-10-31T21:52:26.305Z,101143.16
2022-10-31T21:55:13.925Z,101131.63
2022-10-31T21:58:01.635Z,101131.03
2022-10-31T22:00:49.469Z,101131.34
2022-10-31T22:03:38.305Z,101107.59
2022-10-31T22:06:27.345Z,101098.34
2022-10-31T22:09:15.870Z,101091.16
2022-10-31T22:12:06.766Z,101094.97
2022-10-31T22:14:54.241Z,101092.09
2022-10-31T22:17:42.135Z,101079.03
2022-10-31T22:20:29.465Z,101062.09
2022-10-31T22:23:17.107Z,101051.47
2022-10-31T22:26:23.116Z,101051.28
2022-10-31T22:29:12.594Z,101043.13
2022-10-31T22:32:03.109Z,101029.00
2022-10-31T22:34:50.610Z,101018.00
2022-10-31T22:37:37.912Z,101013.34
2022-10-31T22:40:25.633Z,101003.66
2022-10-31T22:43:13.119Z,100989.81
2022-10-31T22:46:04.883Z,100986.63
2022-10-31T22:48:55.375Z,100979.63
2022-10-31T22:51:43.939Z,100969.75
2022-10-31T22:54:32.092Z,100960.47
2022-10-31T22:57:19.409Z,100960.31
2022-10-31T23:00:08.595Z,100950.13
2022-10-31T23:02:56.193Z,100934.84
2022-10-31T23:05:43.742Z,100934.03
2022-10-31T23:08:34.539Z,100943.75
2022-10-31T23:11:25.600Z,100932.44
2022-10-31T23:14:20.546Z,100922.72
2022-10-31T23:17:08.258Z,100913.81
2022-10-31T23:19:55.683Z,100901.19
2022-10-31T23:22:43.291Z,100896.25
2022-10-31T23:25:49.238Z,100901.22
2022-10-31T23:28:36.556Z,100878.91
2022-10-31T23:31:23.882Z,100876.97
2022-10-31T23:34:11.282Z,100868.53
2022-10-31T23:36:58.765Z,100891.66
2022-10-31T23:39:48.271Z,100927.00
2022-10-31T23:42:35.746Z,100920.03
2022-10-31T23:45:23.586Z,100897.56
2022-10-31T23:48:11.014Z,100919.34
2022-10-31T23:50:58.330Z,100920.97
2022-10-31T23:53:46.069Z,100886.88
2022-10-31T23:56:33.701Z,100895.16
2022-10-31T23:59:22.987Z,100873.47
